sensor_id;sensor_type;location;lat;lon;timestamp;temperature;humidity
1181;DHT22;579;52.046;8.532;2022-07-29T00:02:29;20.20;1.00
1181;DHT22;579;52.046;8.532;2022-07-29T00:04:57;20.30;1.00
1181;DHT22;579;52.046;8.532;2022-07-29T00:07:24;20.40;1.00
1181;DHT22;579;52.046;8.532;2022-07-29T00:09:50;20.60;1.00
1181;DHT22;579;52.046;8.532;2022-07-29T00:12:17;20.40;1.00
1181;DHT22;579;52.046;8.532;2022-07-29T00:14:43;20.30;1.00
1181;DHT22;579;52.046;8.532;2022-07-29T00:17:09;20.40;1.00
1181;DHT22;579;52.046;8.532;2022-07-29T00:25:59;20.30;1.00
1181;DHT22;579;52.046;8.532;2022-07-29T00:28:26;20.30;1.00
1181;DHT22;579;52.046;8.532;2022-07-29T00:30:52;20.30;1.00
1181;DHT22;579;52.046;8.532;2022-07-29T00:33:18;20.30;1.00
1181;DHT22;579;52.046;8.532;2022-07-29T00:35:44;20.30;1.00
1181;DHT22;579;52.046;8.532;2022-07-29T00:38:11;20.20;1.00
1181;DHT22;579;52.046;8.532;2022-07-29T00:40:38;20.20;1.00
1181;DHT22;579;52.046;8.532;2022-07-29T00:46:00;20.10;1.00
1181;DHT22;579;52.046;8.532;2022-07-29T00:48:27;20.10;1.00
1181;DHT22;579;52.046;8.532;2022-07-29T00:50:53;20.10;1.00
1181;DHT22;579;52.046;8.532;2022-07-29T00:53:20;20.10;1.00
1181;DHT22;579;52.046;8.532;2022-07-29T00:55:47;20.10;1.00
1181;DHT22;579;52.046;8.532;2022-07-29T00:58:13;20.00;1.00
1181;DHT22;579;52.046;8.532;2022-07-29T01:00:39;20.10;1.00
1181;DHT22;579;52.046;8.532;2022-07-29T01:08:07;20.00;1.00
1181;DHT22;579;52.046;8.532;2022-07-29T01:10:36;20.00;1.00
1181;DHT22;579;52.046;8.532;2022-07-29T01:13:04;20.00;1.00
1181;DHT22;579;52.046;8.532;2022-07-29T01:15:33;20.00;1.00
1181;DHT22;579;52.046;8.532;2022-07-29T01:18:06;19.80;1.00
1181;DHT22;579;52.046;8.532;2022-07-29T01:20:51;19.80;1.00
1181;DHT22;579;52.046;8.532;2022-07-29T01:23:47;19.80;1.00
1181;DHT22;579;52.046;8.532;2022-07-29T01:26:42;19.90;1.00
1181;DHT22;579;52.046;8.532;2022-07-29T01:29:17;19.90;1.00
1181;DHT22;579;52.046;8.532;2022-07-29T01:31:51;19.80;1.00
1181;DHT22;579;52.046;8.532;2022-07-29T01:34:25;19.80;1.00
1181;DHT22;579;52.046;8.532;2022-07-29T01:37:01;19.80;1.00
1181;DHT22;579;52.046;8.532;2022-07-29T01:39:35;19.70;1.00
1181;DHT22;579;52.046;8.532;2022-07-29T01:47:24;19.70;1.00
1181;DHT22;579;52.046;8.532;2022-07-29T01:49:54;20.00;1.00
1181;DHT22;579;52.046;8.532;2022-07-29T01:52:27;20.00;1.00
1181;DHT22;579;52.046;8.532;2022-07-29T01:55:04;19.80;1.00
1181;DHT22;579;52.046;8.532;2022-07-29T01:57:35;19.70;1.00
1181;DHT22;579;52.046;8.532;2022-07-29T02:00:05;19.60;1.00
1181;DHT22;579;52.046;8.532;2022-07-29T02:02:33;19.70;1.00
1181;DHT22;579;52.046;8.532;2022-07-29T02:09:32;19.60;1.00
1181;DHT22;579;52.046;8.532;2022-07-29T02:12:00;19.60;1.00
1181;DHT22;579;52.046;8.532;2022-07-29T02:14:32;19.60;1.00
1181;DHT22;579;52.046;8.532;2022-07-29T02:17:03;19.50;1.00
1181;DHT22;579;52.046;8.532;2022-07-29T02:19:31;19.60;1.00
1181;DHT22;579;52.046;8.532;2022-07-29T02:21:58;19.60;1.00
1181;DHT22;579;52.046;8.532;2022-07-29T02:24:26;19.40;1.00
1181;DHT22;579;52.046;8.532;2022-07-29T02:31:01;19.40;1.00
1181;DHT22;579;52.046;8.532;2022-07-29T02:33:29;19.50;1.00
1181;DHT22;579;52.046;8.532;2022-07-29T02:35:56;19.50;1.00
1181;DHT22;579;52.046;8.532;2022-07-29T02:38:25;19.30;1.00
1181;DHT22;579;52.046;8.532;2022-07-29T02:41:16;19.30;1.00
1181;DHT22;579;52.046;8.532;2022-07-29T02:43:44;19.50;1.00
1181;DHT22;579;52.046;8.532;2022-07-29T02:46:19;19.20;1.00
1181;DHT22;579;52.046;8.532;2022-07-29T02:49:01;18.90;1.00
1181;DHT22;579;52.046;8.532;2022-07-29T02:51:35;18.90;1.00
1181;DHT22;579;52.046;8.532;2022-07-29T02:54:08;19.20;1.00
1181;DHT22;579;52.046;8.532;2022-07-29T02:56:38;19.10;1.00
1181;DHT22;579;52.046;8.532;2022-07-29T02:59:10;19.10;1.00
1181;DHT22;579;52.046;8.532;2022-07-29T03:01:41;19.10;1.00
1181;DHT22;579;52.046;8.532;2022-07-29T03:04:10;19.20;1.00
1181;DHT22;579;52.046;8.532;2022-07-29T03:10:31;19.40;1.00
1181;DHT22;579;52.046;8.532;2022-07-29T03:12:58;19.20;1.00
1181;DHT22;579;52.046;8.532;2022-07-29T03:15:26;19.30;1.00
1181;DHT22;579;52.046;8.532;2022-07-29T03:17:53;19.20;1.00
1181;DHT22;579;52.046;8.532;2022-07-29T03:20:21;18.90;1.00
1181;DHT22;579;52.046;8.532;2022-07-29T03:22:47;18.90;1.00
1181;DHT22;579;52.046;8.532;2022-07-29T03:25:15;19.00;1.00
1181;DHT22;579;52.046;8.532;2022-07-29T03:31:58;18.90;1.00
1181;DHT22;579;52.046;8.532;2022-07-29T03:34:24;19.10;1.00
1181;DHT22;579;52.046;8.532;2022-07-29T03:36:50;19.10;1.00
1181;DHT22;579;52.046;8.532;2022-07-29T03:39:20;19.00;1.00
1181;DHT22;579;52.046;8.532;2022-07-29T03:41:50;18.80;1.00
1181;DHT22;579;52.046;8.532;2022-07-29T03:44:20;19.00;1.00
1181;DHT22;579;52.046;8.532;2022-07-29T03:46:49;19.10;1.00
1181;DHT22;579;52.046;8.532;2022-07-29T03:54:21;18.70;1.00
1181;DHT22;579;52.046;8.532;2022-07-29T03:56:49;18.70;1.00
1181;DHT22;579;52.046;8.532;2022-07-29T03:59:18;18.60;1.00
1181;DHT22;579;52.046;8.532;2022-07-29T04:01:46;18.60;1.00
1181;DHT22;579;52.046;8.532;2022-07-29T04:04:13;18.60;1.00
1181;DHT22;579;52.046;8.532;2022-07-29T04:06:41;18.70;1.00
1181;DHT22;579;52.046;8.532;2022-07-29T04:09:09;18.80;1.00
1181;DHT22;579;52.046;8.532;2022-07-29T04:15:30;18.60;1.00
1181;DHT22;579;52.046;8.532;2022-07-29T04:17:57;18.60;1.00
1181;DHT22;579;52.046;8.532;2022-07-29T04:20:23;18.70;1.00
1181;DHT22;579;52.046;8.532;2022-07-29T04:22:49;18.70;1.00
1181;DHT22;579;52.046;8.532;2022-07-29T04:25:15;18.70;1.00
1181;DHT22;579;52.046;8.532;2022-07-29T04:27:42;18.60;1.00
1181;DHT22;579;52.046;8.532;2022-07-29T04:30:23;18.50;1.00
1181;DHT22;579;52.046;8.532;2022-07-29T04:37:02;18.80;1.00
1181;DHT22;579;52.046;8.532;2022-07-29T04:39:29;19.00;1.00
1181;DHT22;579;52.046;8.532;2022-07-29T04:41:55;18.80;1.00
1181;DHT22;579;52.046;8.532;2022-07-29T04:44:22;18.70;1.00
1181;DHT22;579;52.046;8.532;2022-07-29T04:46:48;18.70;1.00
1181;DHT22;579;52.046;8.532;2022-07-29T04:49:15;18.60;1.00
1181;DHT22;579;52.046;8.532;2022-07-29T04:51:42;18.70;1.00
1181;DHT22;579;52.046;8.532;2022-07-29T04:56:47;18.70;1.00
1181;DHT22;579;52.046;8.532;2022-07-29T04:59:13;18.60;1.00
1181;DHT22;579;52.046;8.532;2022-07-29T05:01:40;18.90;1.00
1181;DHT22;579;52.046;8.532;2022-07-29T05:04:07;18.70;1.00
1181;DHT22;579;52.046;8.532;2022-07-29T05:06:34;18.50;1.00
1181;DHT22;579;52.046;8.532;2022-07-29T05:09:01;18.50;1.00
1181;DHT22;579;52.046;8.532;2022-07-29T05:11:28;18.60;1.00
1181;DHT22;579;52.046;8.532;2022-07-29T05:16:30;18.70;1.00
1181;DHT22;579;52.046;8.532;2022-07-29T05:18:56;18.90;1.00
1181;DHT22;579;52.046;8.532;2022-07-29T05:21:23;19.20;1.00
1181;DHT22;579;52.046;8.532;2022-07-29T05:23:50;19.60;1.00
1181;DHT22;579;52.046;8.532;2022-07-29T05:26:16;19.50;1.00
1181;DHT22;579;52.046;8.532;2022-07-29T05:28:43;19.50;1.00
1181;DHT22;579;52.046;8.532;2022-07-29T05:31:10;19.50;1.00
1181;DHT22;579;52.046;8.532;2022-07-29T05:34:00;19.70;1.00
1181;DHT22;579;52.046;8.532;2022-07-29T05:36:28;19.70;1.00
1181;DHT22;579;52.046;8.532;2022-07-29T05:38:54;19.60;1.00
1181;DHT22;579;52.046;8.532;2022-07-29T05:41:21;19.50;1.00
1181;DHT22;579;52.046;8.532;2022-07-29T05:43:48;19.70;1.00
1181;DHT22;579;52.046;8.532;2022-07-29T05:46:15;19.80;1.00
1181;DHT22;579;52.046;8.532;2022-07-29T05:48:41;19.80;1.00
1181;DHT22;579;52.046;8.532;2022-07-29T05:53:46;19.90;1.00
1181;DHT22;579;52.046;8.532;2022-07-29T05:56:13;20.10;1.00
1181;DHT22;579;52.046;8.532;2022-07-29T05:58:40;20.30;1.00
1181;DHT22;579;52.046;8.532;2022-07-29T06:01:06;20.40;1.00
1181;DHT22;579;52.046;8.532;2022-07-29T06:03:36;20.60;1.00
1181;DHT22;579;52.046;8.532;2022-07-29T06:06:03;20.60;1.00
1181;DHT22;579;52.046;8.532;2022-07-29T06:08:32;20.70;1.00
1181;DHT22;579;52.046;8.532;2022-07-29T06:13:31;20.60;1.00
1181;DHT22;579;52.046;8.532;2022-07-29T06:15:58;20.80;1.00
1181;DHT22;579;52.046;8.532;2022-07-29T06:18:25;20.80;1.00
1181;DHT22;579;52.046;8.532;2022-07-29T06:20:53;20.90;1.00
1181;DHT22;579;52.046;8.532;2022-07-29T06:23:20;20.90;1.00
1181;DHT22;579;52.046;8.532;2022-07-29T06:25:46;20.90;1.00
1181;DHT22;579;52.046;8.532;2022-07-29T06:28:14;20.90;1.00
1181;DHT22;579;52.046;8.532;2022-07-29T06:33:20;20.90;1.00
1181;DHT22;579;52.046;8.532;2022-07-29T06:35:47;21.10;1.00
1181;DHT22;579;52.046;8.532;2022-07-29T06:38:15;21.30;1.00
1181;DHT22;579;52.046;8.532;2022-07-29T06:40:42;21.40;1.00
1181;DHT22;579;52.046;8.532;2022-07-29T06:43:28;21.40;1.00
1181;DHT22;579;52.046;8.532;2022-07-29T06:46:00;21.50;1.00
1181;DHT22;579;52.046;8.532;2022-07-29T06:51:20;21.70;1.00
1181;DHT22;579;52.046;8.532;2022-07-29T06:53:47;21.70;1.00
1181;DHT22;579;52.046;8.532;2022-07-29T06:56:13;21.60;1.00
1181;DHT22;579;52.046;8.532;2022-07-29T06:58:43;21.90;1.00
1181;DHT22;579;52.046;8.532;2022-07-29T07:01:10;22.20;1.00
1181;DHT22;579;52.046;8.532;2022-07-29T07:03:36;22.30;1.00
1181;DHT22;579;52.046;8.532;2022-07-29T07:06:03;22.30;1.00
1181;DHT22;579;52.046;8.532;2022-07-29T07:11:21;22.30;1.00
1181;DHT22;579;52.046;8.532;2022-07-29T07:13:48;22.40;1.00
1181;DHT22;579;52.046;8.532;2022-07-29T07:16:15;22.60;1.00
1181;DHT22;579;52.046;8.532;2022-07-29T07:18:42;22.70;1.00
1181;DHT22;579;52.046;8.532;2022-07-29T07:21:10;22.70;1.00
1181;DHT22;579;52.046;8.532;2022-07-29T07:23:37;22.70;1.00
1181;DHT22;579;52.046;8.532;2022-07-29T07:26:04;22.80;1.00
1181;DHT22;579;52.046;8.532;2022-07-29T07:31:14;23.00;1.00
1181;DHT22;579;52.046;8.532;2022-07-29T07:33:41;23.10;1.00
1181;DHT22;579;52.046;8.532;2022-07-29T07:36:08;23.00;1.00
1181;DHT22;579;52.046;8.532;2022-07-29T07:38:34;23.00;1.00
1181;DHT22;579;52.046;8.532;2022-07-29T07:41:01;23.20;1.00
1181;DHT22;579;52.046;8.532;2022-07-29T07:43:28;23.20;1.00
1181;DHT22;579;52.046;8.532;2022-07-29T07:45:55;23.30;1.00
1181;DHT22;579;52.046;8.532;2022-07-29T07:51:00;23.20;1.00
1181;DHT22;579;52.046;8.532;2022-07-29T07:53:27;23.30;1.00
1181;DHT22;579;52.046;8.532;2022-07-29T07:55:55;23.30;1.00
1181;DHT22;579;52.046;8.532;2022-07-29T07:58:22;23.50;1.00
1181;DHT22;579;52.046;8.532;2022-07-29T08:00:49;23.60;1.00
1181;DHT22;579;52.046;8.532;2022-07-29T08:03:15;23.70;1.00
1181;DHT22;579;52.046;8.532;2022-07-29T08:05:43;23.70;1.00
1181;DHT22;579;52.046;8.532;2022-07-29T08:10:50;23.70;1.00
1181;DHT22;579;52.046;8.532;2022-07-29T08:13:23;23.90;1.00
1181;DHT22;579;52.046;8.532;2022-07-29T08:15:51;24.10;1.00
1181;DHT22;579;52.046;8.532;2022-07-29T08:18:23;24.20;1.00
1181;DHT22;579;52.046;8.532;2022-07-29T08:20:50;24.30;1.00
1181;DHT22;579;52.046;8.532;2022-07-29T08:23:16;24.30;1.00
1181;DHT22;579;52.046;8.532;2022-07-29T08:28:25;24.10;1.00
1181;DHT22;579;52.046;8.532;2022-07-29T08:30:52;24.70;1.00
1181;DHT22;579;52.046;8.532;2022-07-29T08:33:18;24.70;1.00
1181;DHT22;579;52.046;8.532;2022-07-29T08:35:45;24.90;1.00
1181;DHT22;579;52.046;8.532;2022-07-29T08:38:11;25.10;1.00
1181;DHT22;579;52.046;8.532;2022-07-29T08:40:39;25.30;1.00
1181;DHT22;579;52.046;8.532;2022-07-29T08:43:07;25.30;1.00
1181;DHT22;579;52.046;8.532;2022-07-29T08:48:13;25.40;1.00
1181;DHT22;579;52.046;8.532;2022-07-29T08:50:41;25.60;1.00
1181;DHT22;579;52.046;8.532;2022-07-29T08:53:11;25.60;1.00
1181;DHT22;579;52.046;8.532;2022-07-29T08:55:39;25.50;1.00
1181;DHT22;579;52.046;8.532;2022-07-29T08:58:07;25.60;1.00
1181;DHT22;579;52.046;8.532;2022-07-29T09:00:36;25.40;1.00
1181;DHT22;579;52.046;8.532;2022-07-29T09:05:45;25.60;1.00
1181;DHT22;579;52.046;8.532;2022-07-29T09:08:12;25.80;1.00
1181;DHT22;579;52.046;8.532;2022-07-29T09:10:40;25.90;1.00
1181;DHT22;579;52.046;8.532;2022-07-29T09:13:07;26.20;1.00
1181;DHT22;579;52.046;8.532;2022-07-29T09:15:33;26.30;1.00
1181;DHT22;579;52.046;8.532;2022-07-29T09:18:01;26.50;1.00
1181;DHT22;579;52.046;8.532;2022-07-29T09:20:28;26.90;1.00
1181;DHT22;579;52.046;8.532;2022-07-29T09:25:53;27.30;1.00
1181;DHT22;579;52.046;8.532;2022-07-29T09:28:19;28.00;1.00
1181;DHT22;579;52.046;8.532;2022-07-29T09:30:54;28.00;1.00
1181;DHT22;579;52.046;8.532;2022-07-29T09:33:22;28.10;1.00
1181;DHT22;579;52.046;8.532;2022-07-29T09:35:59;28.40;1.00
1181;DHT22;579;52.046;8.532;2022-07-29T09:38:26;28.60;1.00
1181;DHT22;579;52.046;8.532;2022-07-29T09:43:36;28.50;1.00
1181;DHT22;579;52.046;8.532;2022-07-29T09:46:12;29.00;1.00
1181;DHT22;579;52.046;8.532;2022-07-29T09:48:39;29.30;1.00
1181;DHT22;579;52.046;8.532;2022-07-29T09:51:16;29.30;1.00
1181;DHT22;579;52.046;8.532;2022-07-29T09:53:44;29.30;1.00
1181;DHT22;579;52.046;8.532;2022-07-29T09:56:10;29.40;1.00
1181;DHT22;579;52.046;8.532;2022-07-29T10:01:27;29.30;1.00
1181;DHT22;579;52.046;8.532;2022-07-29T10:03:54;29.00;1.00
1181;DHT22;579;52.046;8.532;2022-07-29T10:06:21;28.80;1.00
1181;DHT22;579;52.046;8.532;2022-07-29T10:08:47;28.70;1.00
1181;DHT22;579;52.046;8.532;2022-07-29T10:11:16;28.60;1.00
1181;DHT22;579;52.046;8.532;2022-07-29T10:13:45;28.60;1.00
1181;DHT22;579;52.046;8.532;2022-07-29T10:19:02;28.40;1.00
1181;DHT22;579;52.046;8.532;2022-07-29T10:21:29;28.30;1.00
1181;DHT22;579;52.046;8.532;2022-07-29T10:23:59;28.30;1.00
1181;DHT22;579;52.046;8.532;2022-07-29T10:26:26;28.40;1.00
1181;DHT22;579;52.046;8.532;2022-07-29T10:28:52;28.60;1.00
1181;DHT22;579;52.046;8.532;2022-07-29T10:31:24;29.00;1.00
1181;DHT22;579;52.046;8.532;2022-07-29T10:36:54;28.80;1.00
1181;DHT22;579;52.046;8.532;2022-07-29T10:39:36;28.80;1.00
1181;DHT22;579;52.046;8.532;2022-07-29T10:42:16;29.00;1.00
1181;DHT22;579;52.046;8.532;2022-07-29T10:44:44;28.90;1.00
1181;DHT22;579;52.046;8.532;2022-07-29T10:47:20;29.00;1.00
1181;DHT22;579;52.046;8.532;2022-07-29T10:50:06;29.20;1.00
1181;DHT22;579;52.046;8.532;2022-07-29T10:55:35;29.30;1.00
1181;DHT22;579;52.046;8.532;2022-07-29T10:58:13;28.80;1.00
1181;DHT22;579;52.046;8.532;2022-07-29T11:00:41;29.20;1.00
1181;DHT22;579;52.046;8.532;2022-07-29T11:03:08;29.30;1.00
1181;DHT22;579;52.046;8.532;2022-07-29T11:05:55;29.30;1.00
1181;DHT22;579;52.046;8.532;2022-07-29T11:08:25;29.40;1.00
1181;DHT22;579;52.046;8.532;2022-07-29T11:15:28;29.80;1.00
1181;DHT22;579;52.046;8.532;2022-07-29T11:18:06;30.20;1.00
1181;DHT22;579;52.046;8.532;2022-07-29T11:20:36;30.10;1.00
1181;DHT22;579;52.046;8.532;2022-07-29T11:23:22;29.90;1.00
1181;DHT22;579;52.046;8.532;2022-07-29T11:26:18;29.90;1.00
1181;DHT22;579;52.046;8.532;2022-07-29T11:28:59;29.90;1.00
1181;DHT22;579;52.046;8.532;2022-07-29T11:35:31;30.50;1.00
1181;DHT22;579;52.046;8.532;2022-07-29T11:38:25;30.50;1.00
1181;DHT22;579;52.046;8.532;2022-07-29T11:43:50;30.00;1.00
1181;DHT22;579;52.046;8.532;2022-07-29T11:46:43;30.00;1.00
1181;DHT22;579;52.046;8.532;2022-07-29T11:49:11;29.80;1.00
1181;DHT22;579;52.046;8.532;2022-07-29T11:55:32;29.70;1.00
1181;DHT22;579;52.046;8.532;2022-07-29T11:58:03;29.80;1.00
1181;DHT22;579;52.046;8.532;2022-07-29T12:00:31;29.90;1.00
1181;DHT22;579;52.046;8.532;2022-07-29T12:03:00;30.00;1.00
1181;DHT22;579;52.046;8.532;2022-07-29T12:05:38;29.70;1.00
1181;DHT22;579;52.046;8.532;2022-07-29T12:08:14;29.80;1.00
1181;DHT22;579;52.046;8.532;2022-07-29T12:15:31;29.50;1.00
1181;DHT22;579;52.046;8.532;2022-07-29T12:17:58;29.80;1.00
1181;DHT22;579;52.046;8.532;2022-07-29T12:20:26;29.90;1.00
1181;DHT22;579;52.046;8.532;2022-07-29T12:22:54;30.10;1.00
1181;DHT22;579;52.046;8.532;2022-07-29T12:25:22;30.30;1.00
1181;DHT22;579;52.046;8.532;2022-07-29T12:27:58;30.70;1.00
1181;DHT22;579;52.046;8.532;2022-07-29T12:33:17;30.90;1.00
1181;DHT22;579;52.046;8.532;2022-07-29T12:35:48;30.80;1.00
1181;DHT22;579;52.046;8.532;2022-07-29T12:38:17;30.40;1.00
1181;DHT22;579;52.046;8.532;2022-07-29T12:40:45;30.50;1.00
1181;DHT22;579;52.046;8.532;2022-07-29T12:43:14;30.50;1.00
1181;DHT22;579;52.046;8.532;2022-07-29T12:45:43;30.30;1.00
1181;DHT22;579;52.046;8.532;2022-07-29T12:50:57;30.30;1.00
1181;DHT22;579;52.046;8.532;2022-07-29T12:53:25;30.50;1.00
1181;DHT22;579;52.046;8.532;2022-07-29T12:55:54;30.80;1.00
1181;DHT22;579;52.046;8.532;2022-07-29T12:58:29;30.30;1.00
1181;DHT22;579;52.046;8.532;2022-07-29T13:01:16;30.10;1.00
1181;DHT22;579;52.046;8.532;2022-07-29T13:03:46;30.00;1.00
1181;DHT22;579;52.046;8.532;2022-07-29T13:11:02;29.80;1.00
1181;DHT22;579;52.046;8.532;2022-07-29T13:13:29;29.80;1.00
1181;DHT22;579;52.046;8.532;2022-07-29T13:16:07;29.50;1.00
1181;DHT22;579;52.046;8.532;2022-07-29T13:18:34;29.50;1.00
1181;DHT22;579;52.046;8.532;2022-07-29T13:21:10;29.70;1.00
1181;DHT22;579;52.046;8.532;2022-07-29T13:23:38;29.70;1.00
1181;DHT22;579;52.046;8.532;2022-07-29T13:29:02;29.50;1.00
1181;DHT22;579;52.046;8.532;2022-07-29T13:31:28;29.40;1.00
1181;DHT22;579;52.046;8.532;2022-07-29T13:33:55;29.40;1.00
1181;DHT22;579;52.046;8.532;2022-07-29T13:36:22;29.30;1.00
1181;DHT22;579;52.046;8.532;2022-07-29T13:38:51;29.10;1.00
1181;DHT22;579;52.046;8.532;2022-07-29T13:41:18;29.00;1.00
1181;DHT22;579;52.046;8.532;2022-07-29T13:43:45;28.80;1.00
1181;DHT22;579;52.046;8.532;2022-07-29T13:46:32;28.80;1.00
1181;DHT22;579;52.046;8.532;2022-07-29T13:48:58;28.60;1.00
1181;DHT22;579;52.046;8.532;2022-07-29T13:51:25;28.60;1.00
1181;DHT22;579;52.046;8.532;2022-07-29T13:53:52;28.40;1.00
1181;DHT22;579;52.046;8.532;2022-07-29T13:56:19;28.50;1.00
1181;DHT22;579;52.046;8.532;2022-07-29T13:58:45;28.40;1.00
1181;DHT22;579;52.046;8.532;2022-07-29T14:01:12;28.40;1.00
1181;DHT22;579;52.046;8.532;2022-07-29T14:06:14;28.20;1.00
1181;DHT22;579;52.046;8.532;2022-07-29T14:08:41;28.00;1.00
1181;DHT22;579;52.046;8.532;2022-07-29T14:11:08;28.30;1.00
1181;DHT22;579;52.046;8.532;2022-07-29T14:13:35;28.10;1.00
1181;DHT22;579;52.046;8.532;2022-07-29T14:16:02;28.00;1.00
1181;DHT22;579;52.046;8.532;2022-07-29T14:18:29;28.10;1.00
1181;DHT22;579;52.046;8.532;2022-07-29T14:20:57;27.90;1.00
1181;DHT22;579;52.046;8.532;2022-07-29T14:26:08;27.90;1.00
1181;DHT22;579;52.046;8.532;2022-07-29T14:28:34;28.10;1.00
1181;DHT22;579;52.046;8.532;2022-07-29T14:31:01;28.10;1.00
1181;DHT22;579;52.046;8.532;2022-07-29T14:33:28;28.20;1.00
1181;DHT22;579;52.046;8.532;2022-07-29T14:35:54;28.30;1.00
1181;DHT22;579;52.046;8.532;2022-07-29T14:38:21;28.30;1.00
1181;DHT22;579;52.046;8.532;2022-07-29T14:40:48;28.30;1.00
1181;DHT22;579;52.046;8.532;2022-07-29T14:45:48;28.20;1.00
1181;DHT22;579;52.046;8.532;2022-07-29T14:48:15;28.40;1.00
1181;DHT22;579;52.046;8.532;2022-07-29T14:50:41;28.30;1.00
1181;DHT22;579;52.046;8.532;2022-07-29T14:53:08;28.00;1.00
1181;DHT22;579;52.046;8.532;2022-07-29T14:55:35;28.10;1.00
1181;DHT22;579;52.046;8.532;2022-07-29T14:58:02;28.30;1.00
1181;DHT22;579;52.046;8.532;2022-07-29T15:00:28;28.10;1.00
1181;DHT22;579;52.046;8.532;2022-07-29T15:05:49;27.90;1.00
1181;DHT22;579;52.046;8.532;2022-07-29T15:08:16;27.60;1.00
1181;DHT22;579;52.046;8.532;2022-07-29T15:10:42;27.80;1.00
1181;DHT22;579;52.046;8.532;2022-07-29T15:13:09;27.80;1.00
1181;DHT22;579;52.046;8.532;2022-07-29T15:15:36;27.70;1.00
1181;DHT22;579;52.046;8.532;2022-07-29T15:18:05;27.60;1.00
1181;DHT22;579;52.046;8.532;2022-07-29T15:20:33;27.60;1.00
1181;DHT22;579;52.046;8.532;2022-07-29T15:25:30;27.60;1.00
1181;DHT22;579;52.046;8.532;2022-07-29T15:27:58;27.40;1.00
1181;DHT22;579;52.046;8.532;2022-07-29T15:30:29;27.20;1.00
1181;DHT22;579;52.046;8.532;2022-07-29T15:32:56;27.10;1.00
1181;DHT22;579;52.046;8.532;2022-07-29T15:35:23;26.90;1.00
1181;DHT22;579;52.046;8.532;2022-07-29T15:37:50;26.90;1.00
1181;DHT22;579;52.046;8.532;2022-07-29T15:40:17;27.00;1.00
1181;DHT22;579;52.046;8.532;2022-07-29T15:45:28;27.10;1.00
1181;DHT22;579;52.046;8.532;2022-07-29T15:47:54;27.10;1.00
1181;DHT22;579;52.046;8.532;2022-07-29T15:50:21;27.00;1.00
1181;DHT22;579;52.046;8.532;2022-07-29T15:52:48;26.80;1.00
1181;DHT22;579;52.046;8.532;2022-07-29T15:55:15;26.90;1.00
1181;DHT22;579;52.046;8.532;2022-07-29T15:57:41;26.90;1.00
1181;DHT22;579;52.046;8.532;2022-07-29T16:00:10;26.90;1.00
1181;DHT22;579;52.046;8.532;2022-07-29T16:05:04;26.90;1.00
1181;DHT22;579;52.046;8.532;2022-07-29T16:07:31;26.90;1.00
1181;DHT22;579;52.046;8.532;2022-07-29T16:09:58;26.70;1.00
1181;DHT22;579;52.046;8.532;2022-07-29T16:12:25;26.50;1.00
1181;DHT22;579;52.046;8.532;2022-07-29T16:14:52;26.60;1.00
1181;DHT22;579;52.046;8.532;2022-07-29T16:17:19;26.80;1.00
1181;DHT22;579;52.046;8.532;2022-07-29T16:19:46;26.70;1.00
1181;DHT22;579;52.046;8.532;2022-07-29T16:22:26;26.60;1.00
1181;DHT22;579;52.046;8.532;2022-07-29T16:24:53;26.60;1.00
1181;DHT22;579;52.046;8.532;2022-07-29T16:27:20;26.50;1.00
1181;DHT22;579;52.046;8.532;2022-07-29T16:29:51;26.50;1.00
1181;DHT22;579;52.046;8.532;2022-07-29T16:32:17;26.30;1.00
1181;DHT22;579;52.046;8.532;2022-07-29T16:34:44;26.50;1.00
1181;DHT22;579;52.046;8.532;2022-07-29T16:37:10;26.40;1.00
1181;DHT22;579;52.046;8.532;2022-07-29T16:42:16;26.50;1.00
1181;DHT22;579;52.046;8.532;2022-07-29T16:44:43;25.90;1.00
1181;DHT22;579;52.046;8.532;2022-07-29T16:47:09;25.60;1.00
1181;DHT22;579;52.046;8.532;2022-07-29T16:49:36;25.50;1.00
1181;DHT22;579;52.046;8.532;2022-07-29T16:52:03;25.40;1.00
1181;DHT22;579;52.046;8.532;2022-07-29T16:54:30;25.30;1.00
1181;DHT22;579;52.046;8.532;2022-07-29T16:56:56;25.50;1.00
1181;DHT22;579;52.046;8.532;2022-07-29T17:02:12;25.70;1.00
1181;DHT22;579;52.046;8.532;2022-07-29T17:04:39;25.00;1.00
1181;DHT22;579;52.046;8.532;2022-07-29T17:07:06;24.80;1.00
1181;DHT22;579;52.046;8.532;2022-07-29T17:09:32;24.70;1.00
1181;DHT22;579;52.046;8.532;2022-07-29T17:11:59;24.40;1.00
1181;DHT22;579;52.046;8.532;2022-07-29T17:14:27;24.00;1.00
1181;DHT22;579;52.046;8.532;2022-07-29T17:16:57;23.70;1.00
1181;DHT22;579;52.046;8.532;2022-07-29T17:22:03;23.60;1.00
1181;DHT22;579;52.046;8.532;2022-07-29T17:24:31;23.50;1.00
1181;DHT22;579;52.046;8.532;2022-07-29T17:26:58;23.50;1.00
1181;DHT22;579;52.046;8.532;2022-07-29T17:29:24;23.80;1.00
1181;DHT22;579;52.046;8.532;2022-07-29T17:31:51;23.80;1.00
1181;DHT22;579;52.046;8.532;2022-07-29T17:34:18;23.80;1.00
1181;DHT22;579;52.046;8.532;2022-07-29T17:36:45;23.90;1.00
1181;DHT22;579;52.046;8.532;2022-07-29T17:41:47;23.80;1.00
1181;DHT22;579;52.046;8.532;2022-07-29T17:44:14;23.90;1.00
1181;DHT22;579;52.046;8.532;2022-07-29T17:46:40;23.80;1.00
1181;DHT22;579;52.046;8.532;2022-07-29T17:49:07;23.80;1.00
1181;DHT22;579;52.046;8.532;2022-07-29T17:51:34;24.00;1.00
1181;DHT22;579;52.046;8.532;2022-07-29T17:54:00;23.80;1.00
1181;DHT22;579;52.046;8.532;2022-07-29T17:56:27;24.00;1.00
1181;DHT22;579;52.046;8.532;2022-07-29T18:01:33;24.00;1.00
1181;DHT22;579;52.046;8.532;2022-07-29T18:04:00;23.80;1.00
1181;DHT22;579;52.046;8.532;2022-07-29T18:06:27;23.70;1.00
1181;DHT22;579;52.046;8.532;2022-07-29T18:08:54;23.60;1.00
1181;DHT22;579;52.046;8.532;2022-07-29T18:11:21;23.60;1.00
1181;DHT22;579;52.046;8.532;2022-07-29T18:13:47;23.40;1.00
1181;DHT22;579;52.046;8.532;2022-07-29T18:16:14;23.50;1.00
1181;DHT22;579;52.046;8.532;2022-07-29T18:22:33;23.50;1.00
1181;DHT22;579;52.046;8.532;2022-07-29T18:24:59;23.00;1.00
1181;DHT22;579;52.046;8.532;2022-07-29T18:27:27;22.80;1.00
1181;DHT22;579;52.046;8.532;2022-07-29T18:29:53;22.20;1.00
1181;DHT22;579;52.046;8.532;2022-07-29T18:32:19;22.30;1.00
1181;DHT22;579;52.046;8.532;2022-07-29T18:34:46;22.50;1.00
1181;DHT22;579;52.046;8.532;2022-07-29T18:37:12;22.20;1.00
1181;DHT22;579;52.046;8.532;2022-07-29T18:42:19;21.90;1.00
1181;DHT22;579;52.046;8.532;2022-07-29T18:44:46;21.90;1.00
1181;DHT22;579;52.046;8.532;2022-07-29T18:47:12;21.70;1.00
1181;DHT22;579;52.046;8.532;2022-07-29T18:49:39;22.00;1.00
1181;DHT22;579;52.046;8.532;2022-07-29T18:52:05;21.90;1.00
1181;DHT22;579;52.046;8.532;2022-07-29T18:54:31;21.80;1.00
1181;DHT22;579;52.046;8.532;2022-07-29T18:56:58;21.80;1.00
1181;DHT22;579;52.046;8.532;2022-07-29T19:04:29;21.90;1.00
1181;DHT22;579;52.046;8.532;2022-07-29T19:06:55;21.70;1.00
1181;DHT22;579;52.046;8.532;2022-07-29T19:09:24;21.70;1.00
1181;DHT22;579;52.046;8.532;2022-07-29T19:11:50;21.50;1.00
1181;DHT22;579;52.046;8.532;2022-07-29T19:14:17;21.50;1.00
1181;DHT22;579;52.046;8.532;2022-07-29T19:16:44;21.60;1.00
1181;DHT22;579;52.046;8.532;2022-07-29T19:19:10;21.70;1.00
1181;DHT22;579;52.046;8.532;2022-07-29T19:26:42;21.40;1.00
1181;DHT22;579;52.046;8.532;2022-07-29T19:29:11;21.70;1.00
1181;DHT22;579;52.046;8.532;2022-07-29T19:31:38;21.60;1.00
1181;DHT22;579;52.046;8.532;2022-07-29T19:34:05;21.40;1.00
1181;DHT22;579;52.046;8.532;2022-07-29T19:36:31;21.30;1.00
1181;DHT22;579;52.046;8.532;2022-07-29T19:38:57;21.40;1.00
1181;DHT22;579;52.046;8.532;2022-07-29T19:41:24;21.70;1.00
1181;DHT22;579;52.046;8.532;2022-07-29T19:48:33;21.50;1.00
1181;DHT22;579;52.046;8.532;2022-07-29T19:50:59;21.40;1.00
1181;DHT22;579;52.046;8.532;2022-07-29T19:53:26;21.70;1.00